Time;durP1;ratioP1;P1;durP2;ratioP2;P2;SDS_P1;SDS_P2;PMS_P1;PMS_P2;Temp;Humidity;BMP_temperature;BMP_pressure;BME280_temperature;BME280_humidity;BME280_pressure;Samples;Min_cycle;Max_cycle;Signal;HPM_P1;HPM_P2
2023/01/11 00:01:34;;;;;;;3.20;2.60;;;13.20;99.90;;;;;;4859866;29;20064;-69
2023/01/11 00:04:00;;;;;;;;;;;12.50;99.90;;;;;;4857347;29;20056;-69
2023/01/11 00:06:25;;;;;;;3.10;2.80;;;12.70;99.90;;;;;;4857759;29;20276;-69
2023/01/11 00:08:51;;;;;;;3.22;2.92;;;12.50;99.90;;;;;;4841454;29;20064;-68
2023/01/11 00:11:17;;;;;;;3.00;2.70;;;12.90;99.90;;;;;;4857719;29;20046;-77
2023/01/11 00:13:44;;;;;;;3.72;2.88;;;13.20;99.90;;;;;;4861938;29;20088;-76
2023/01/11 00:16:10;;;;;;;4.70;2.65;;;12.80;99.90;;;;;;4860485;29;20049;-77
2023/01/11 00:18:37;;;;;;;2.90;2.60;;;12.60;99.90;;;;;;4844846;29;20049;-77
2023/01/11 00:21:06;;;;;;;;;;;13.00;99.90;;;;;;4860884;29;20152;-77
2023/01/11 00:23:36;;;;;;;2.80;2.55;;;13.30;99.90;;;;;;4859691;29;19927;-77
2023/01/11 00:26:06;;;;;;;3.33;2.50;;;12.70;99.90;;;;;;4820091;29;20050;-76
2023/01/11 00:28:32;;;;;;;3.85;2.70;;;13.60;99.90;;;;;;4858835;29;20570;-77
2023/01/11 00:30:58;;;;;;;3.35;2.80;;;13.50;99.90;;;;;;4858940;29;20045;-69
2023/01/11 00:33:24;;;;;;;3.13;2.63;;;12.80;99.90;;;;;;4842902;29;20509;-69
2023/01/11 00:35:53;;;;;;;3.63;2.88;;;13.50;99.90;;;;;;4842989;29;20045;-68
2023/01/11 00:47:55;;;;;;;3.33;2.80;;;12.90;99.90;;;;;;4859431;29;20057;-76
2023/01/11 00:49:21;;;;;;;3.03;2.50;;;13.80;99.90;;;;;;4843119;29;20057;-76
2023/01/11 00:51:46;;;;;;;2.70;2.50;;;13.20;99.90;;;;;;4859774;29;20048;-76
2023/01/11 00:54:13;;;;;;;2.60;2.40;;;13.10;99.90;;;;;;4859766;29;20037;-77
2023/01/11 00:56:38;;;;;;;3.20;2.85;;;13.70;99.90;;;;;;4859771;29;20103;-77
2023/01/11 00:59:04;;;;;;;2.75;2.30;;;13.70;99.90;;;;;;4858932;29;20049;-77
2023/01/11 01:01:31;;;;;;;3.63;2.80;;;13.10;99.90;;;;;;4858819;29;20060;-69
2023/01/11 01:03:58;;;;;;;2.53;2.33;;;14.00;99.90;;;;;;4842508;29;20500;-69
2023/01/11 01:06:24;;;;;;;2.42;2.22;;;13.50;99.90;;;;;;4859057;29;20504;-69
2023/01/11 01:08:50;;;;;;;2.60;2.40;;;13.50;99.90;;;;;;4843515;29;20053;-69
2023/01/11 01:11:15;;;;;;;3.10;2.50;;;13.50;99.90;;;;;;4867065;29;20077;-69
2023/01/11 01:16:25;;;;;;;2.42;2.22;;;13.50;99.90;;;;;;4835501;29;20053;-69
2023/01/11 01:18:52;;;;;;;2.30;2.10;;;13.60;99.90;;;;;;4855638;29;20053;-69
2023/01/11 01:21:22;;;;;;;3.05;2.10;;;13.40;99.90;;;;;;4859057;29;20057;-69
2023/01/11 01:23:49;;;;;;;2.28;1.63;;;13.50;99.90;;;;;;4858874;29;20076;-69
2023/01/11 01:26:15;;;;;;;2.38;1.67;;;14.30;99.90;;;;;;4849350;29;20113;-69
2023/01/11 01:28:41;;;;;;;1.60;1.50;;;13.60;99.90;;;;;;4840498;29;20145;-69
2023/01/11 01:31:07;;;;;;;1.80;1.70;;;14.00;99.90;;;;;;4840636;29;20074;-69
2023/01/11 01:33:33;;;;;;;2.22;1.45;;;13.80;99.90;;;;;;4841753;29;20053;-70
2023/01/11 01:36:00;;;;;;;2.10;1.50;;;14.70;99.90;;;;;;4855870;29;20074;-69
2023/01/11 01:38:26;;;;;;;2.15;1.60;;;14.00;99.90;;;;;;4869323;29;20053;-69
2023/01/11 01:40:52;;;;;;;1.90;1.58;;;14.00;99.90;;;;;;4858465;29;20135;-69
2023/01/11 01:43:21;;;;;;;2.53;1.40;;;14.70;99.90;;;;;;4838451;29;20037;-69
2023/01/11 01:45:49;;;;;;;1.73;1.33;;;14.70;99.90;;;;;;4840192;29;20057;-69
2023/01/11 01:48:19;;;;;;;1.67;1.40;;;14.00;99.90;;;;;;4857533;29;20423;-69
2023/01/11 01:50:52;;;;;;;2.13;1.38;;;14.20;99.90;;;;;;4857560;29;20069;-69
2023/01/11 01:53:27;;;;;;;2.58;1.33;;;14.20;99.90;;;;;;4842853;29;20045;-75
2023/01/11 01:55:57;;;;;;;1.33;1.10;;;15.00;99.90;;;;;;4859126;29;20477;-75
2023/01/11 01:58:30;;;;;;;1.55;1.10;;;14.60;99.90;;;;;;4841836;29;20040;-76
2023/01/11 02:00:56;;;;;;;1.38;1.20;;;14.10;99.90;;;;;;4858631;29;20061;-76
2023/01/11 02:03:25;;;;;;;1.80;1.27;;;15.00;99.90;;;;;;4838798;29;20556;-76
2023/01/11 02:05:53;;;;;;;1.75;1.38;;;14.30;99.90;;;;;;4857180;29;20426;-76
2023/01/11 02:08:35;;;;;;;1.27;1.08;;;14.50;99.90;;;;;;4846503;29;20046;-76
2023/01/11 02:11:02;;;;;;;1.25;1.00;;;14.20;99.90;;;;;;4858631;29;20082;-76
2023/01/11 02:13:29;;;;;;;1.17;0.95;;;15.10;99.90;;;;;;4858299;29;20048;-75
2023/01/11 02:16:07;;;;;;;1.58;1.10;;;14.40;99.90;;;;;;4839134;29;20053;-76
2023/01/11 02:18:35;;;;;;;0.77;0.77;;;15.20;99.90;;;;;;4856652;29;20045;-76
2023/01/11 02:21:16;;;;;;;1.67;1.10;;;14.40;99.90;;;;;;4866015;29;20728;-76
2023/01/11 02:24:12;;;;;;;1.75;1.20;;;14.60;99.90;;;;;;4840133;29;20049;-76
2023/01/11 02:26:58;;;;;;;1.10;1.00;;;15.30;99.90;;;;;;4855208;29;20045;-76
2023/01/11 02:29:41;;;;;;;1.42;1.13;;;15.40;99.90;;;;;;4856146;29;20057;-77
2023/01/11 02:32:07;;;;;;;1.48;1.10;;;14.70;99.90;;;;;;4858826;29;20058;-76
2023/01/11 02:34:41;;;;;;;1.08;0.98;;;15.40;99.90;;;;;;4856349;29;20049;-76
2023/01/11 02:37:36;;;;;;;1.92;1.10;;;14.90;99.90;;;;;;4856786;29;20053;-76
2023/01/11 02:40:25;;;;;;;1.00;0.90;;;15.40;99.90;;;;;;4858019;29;20050;-76
2023/01/11 02:46:00;;;;;;;0.70;0.70;;;15.50;99.90;;;;;;4854532;29;20061;-76
2023/01/11 02:48:46;;;;;;;0.95;0.90;;;15.10;99.90;;;;;;4856412;29;20041;-76
2023/01/11 02:51:21;;;;;;;0.93;0.82;;;14.90;99.90;;;;;;4857113;29;20046;-76
2023/01/11 02:53:57;;;;;;;0.70;0.68;;;14.90;99.90;;;;;;4854988;29;20124;-76
2023/01/11 02:56:29;;;;;;;1.45;0.90;;;14.70;99.90;;;;;;4855280;29;20073;-76
2023/01/11 02:58:57;;;;;;;1.00;0.90;;;14.70;99.90;;;;;;4855723;29;20108;-76
2023/01/11 03:01:24;;;;;;;1.00;0.82;;;15.60;99.90;;;;;;4857428;29;20105;-76
2023/01/11 03:03:51;;;;;;;1.20;0.90;;;15.10;99.90;;;;;;4855751;29;20049;-76
2023/01/11 03:06:26;;;;;;;0.63;0.63;;;15.60;99.90;;;;;;4856539;29;20069;-76
2023/01/11 03:09:18;;;;;;;0.60;0.60;;;15.30;99.90;;;;;;4849591;29;20395;-76
2023/01/11 03:14:40;;;;;;;1.48;0.80;;;15.00;99.90;;;;;;4842642;29;20086;-76
2023/01/11 03:17:35;;;;;;;1.05;0.73;;;15.60;99.90;;;;;;4853020;29;20049;-76
2023/01/11 03:20:26;;;;;;;0.68;0.68;;;15.30;99.90;;;;;;4854713;29;20061;-76
2023/01/11 03:23:13;;;;;;;0.55;0.55;;;15.70;99.90;;;;;;4834758;29;20065;-76
2023/01/11 03:26:11;;;;;;;0.50;0.50;;;15.10;99.90;;;;;;4856657;29;20109;-75
2023/01/11 03:29:03;;;;;;;0.93;0.60;;;15.20;99.90;;;;;;4849217;29;20596;-75
2023/01/11 03:31:52;;;;;;;0.45;0.43;;;15.40;99.90;;;;;;4854310;29;20089;-75
2023/01/11 03:34:45;;;;;;;0.80;0.52;;;14.90;99.90;;;;;;4857893;29;20503;-76
2023/01/11 03:37:33;;;;;;;0.82;0.60;;;15.30;99.90;;;;;;4826558;29;20049;-76
2023/01/11 03:40:09;;;;;;;1.05;0.90;;;15.10;99.90;;;;;;4856930;29;20049;-76
2023/01/11 03:43:09;;;;;;;1.50;1.15;;;15.20;99.90;;;;;;4857927;29;20421;-76
2023/01/11 03:45:25;;;;;;;2.10;1.10;;;15.10;99.90;;;;;;4854986;29;20451;-76
2023/01/11 03:47:53;;;;;;;2.50;1.20;;;15.40;99.90;;;;;;4858947;29;20398;-76
2023/01/11 03:50:19;;;;;;;3.83;1.40;;;15.10;99.90;;;;;;4845057;29;20105;-76
2023/01/11 03:52:45;;;;;;;3.95;1.45;;;15.30;99.90;;;;;;4825255;29;20124;-68
2023/01/11 03:55:15;;;;;;;4.55;1.65;;;15.20;99.90;;;;;;4858282;29;20136;-70
2023/01/11 03:57:50;;;;;;;4.22;1.40;;;15.50;99.90;;;;;;4857466;29;20565;-69
2023/01/11 04:00:21;;;;;;;5.53;1.73;;;15.40;99.90;;;;;;4857581;29;20109;-69
2023/01/11 04:02:48;;;;;;;6.28;1.80;;;15.40;99.90;;;;;;4857425;29;20109;-69
2023/01/11 04:05:14;;;;;;;7.70;1.95;;;15.50;99.90;;;;;;4858020;29;20089;-68
2023/01/11 04:07:40;;;;;;;;;;;15.80;99.90;;;;;;4843447;29;20057;-69
2023/01/11 04:10:06;;;;;;;6.38;2.05;;;16.00;99.90;;;;;;4858845;29;19935;-68
2023/01/11 04:12:32;;;;;;;;;;;16.10;99.90;;;;;;4857871;29;20132;-69
2023/01/11 04:14:57;;;;;;;7.88;2.40;;;15.30;99.90;;;;;;4858561;29;19979;-69
2023/01/11 04:17:23;;;;;;;6.20;1.90;;;15.70;99.90;;;;;;4841987;29;20041;-69
2023/01/11 04:19:49;;;;;;;8.50;2.22;;;15.30;99.90;;;;;;4843056;29;20049;-69
2023/01/11 04:22:15;;;;;;;8.52;2.17;;;15.80;99.90;;;;;;4827364;29;20045;-68
2023/01/11 04:24:40;;;;;;;7.05;2.10;;;15.80;99.90;;;;;;4858138;29;20489;-69
2023/01/11 04:27:06;;;;;;;13.10;2.40;;;15.20;99.90;;;;;;4858307;29;20474;-68
2023/01/11 04:29:31;;;;;;;10.23;2.85;;;15.40;99.90;;;;;;4842048;29;20048;-69
2023/01/11 04:31:57;;;;;;;8.63;1.70;;;15.80;99.90;;;;;;4857648;29;20057;-69
2023/01/11 04:34:23;;;;;;;4.93;1.20;;;15.30;99.90;;;;;;4856812;29;20608;-69
2023/01/11 04:36:49;;;;;;;4.75;1.15;;;14.40;99.90;;;;;;4843480;29;20048;-70
2023/01/11 04:39:14;;;;;;;5.60;1.20;;;14.40;99.90;;;;;;4840879;29;20482;-69
2023/01/11 04:44:24;;;;;;;4.38;1.20;;;14.10;99.90;;;;;;4857859;29;20049;-69
2023/01/11 04:46:50;;;;;;;5.40;1.30;;;13.80;99.90;;;;;;4841593;29;20071;-68
2023/01/11 04:49:15;;;;;;;5.00;1.02;;;13.70;99.90;;;;;;4857826;29;20401;-68
2023/01/11 04:51:41;;;;;;;5.22;1.23;;;13.90;99.90;;;;;;4856314;29;20049;-69
2023/01/11 04:54:07;;;;;;;5.15;1.20;;;13.80;99.90;;;;;;4827830;29;20045;-69
2023/01/11 04:56:33;;;;;;;5.70;1.38;;;13.90;99.90;;;;;;4841346;29;20056;-69
2023/01/11 04:58:59;;;;;;;4.45;1.00;;;13.60;99.90;;;;;;4856587;29;20057;-69
2023/01/11 05:01:25;;;;;;;5.60;1.15;;;13.90;99.90;;;;;;4856305;29;20413;-69
2023/01/11 05:03:50;;;;;;;4.03;1.10;;;13.50;99.90;;;;;;4856030;29;20148;-69
2023/01/11 05:06:18;;;;;;;6.57;1.58;;;13.80;99.90;;;;;;4856622;29;20060;-69
2023/01/11 05:08:45;;;;;;;6.35;1.20;;;13.80;99.90;;;;;;4856701;29;20054;-69
2023/01/11 05:11:11;;;;;;;5.43;1.17;;;13.50;99.90;;;;;;4858167;29;20038;-69
2023/01/11 05:13:43;;;;;;;4.45;0.90;;;13.40;99.90;;;;;;4843115;29;20069;-69
2023/01/11 05:16:23;;;;;;;5.07;1.10;;;13.50;99.90;;;;;;4858599;29;20052;-69
2023/01/11 05:18:58;;;;;;;8.60;1.65;;;13.50;99.90;;;;;;4859314;29;20128;-69
2023/01/11 05:21:30;;;;;;;6.63;1.30;;;13.80;99.90;;;;;;4859730;29;20064;-69
2023/01/11 05:23:58;;;;;;;9.45;2.03;;;13.60;99.90;;;;;;4857977;29;20128;-69
2023/01/11 05:26:29;;;;;;;8.93;1.75;;;14.00;99.90;;;;;;4858273;29;20049;-68
2023/01/11 05:28:58;;;;;;;8.65;2.20;;;13.70;99.90;;;;;;4838637;29;20440;-68
2023/01/11 05:31:24;;;;;;;9.35;1.85;;;14.00;99.90;;;;;;4849228;29;20530;-68
2023/01/11 05:33:49;;;;;;;10.63;1.67;;;13.90;99.90;;;;;;4858044;29;20073;-68
2023/01/11 05:36:18;;;;;;;6.88;1.58;;;14.00;99.90;;;;;;4858928;29;20132;-69
2023/01/11 05:38:49;;;;;;;7.97;2.17;;;13.90;99.90;;;;;;4858353;29;20041;-68
2023/01/11 05:41:16;;;;;;;8.95;2.00;;;13.80;99.90;;;;;;4858129;29;20052;-69
2023/01/11 05:46:32;;;;;;;7.15;1.33;;;13.80;99.90;;;;;;4856753;29;20085;-68
2023/01/11 05:48:58;;;;;;;5.18;1.52;;;13.60;99.90;;;;;;4841865;29;20053;-68
2023/01/11 05:51:24;;;;;;;7.82;2.05;;;13.50;99.90;;;;;;4855505;29;20045;-69
2023/01/11 05:53:51;;;;;;;7.97;1.90;;;13.50;99.90;;;;;;4841916;29;20042;-68
2023/01/11 05:56:18;;;;;;;11.50;2.13;;;13.60;99.90;;;;;;4855383;29;20524;-68
2023/01/11 05:58:47;;;;;;;8.70;2.15;;;13.60;99.90;;;;;;4857018;29;20049;-68
2023/01/11 06:01:14;;;;;;;11.52;2.33;;;13.50;99.90;;;;;;4857184;29;20045;-68
2023/01/11 06:03:40;;;;;;;;;;;13.60;99.90;;;;;;4855200;29;20498;-69
2023/01/11 06:06:06;;;;;;;13.23;2.85;;;13.40;99.90;;;;;;4856875;29;19931;-71
2023/01/11 06:08:31;;;;;;;11.80;1.90;;;13.30;99.90;;;;;;4855784;29;20055;-69
2023/01/11 06:10:57;;;;;;;11.82;2.13;;;13.50;99.90;;;;;;4840073;29;20050;-69
2023/01/11 06:13:27;;;;;;;11.27;2.08;;;13.10;99.90;;;;;;4855409;29;20117;-69
2023/01/11 06:16:00;;;;;;;12.65;2.78;;;13.10;99.90;;;;;;4854957;29;20080;-69
2023/01/11 06:18:28;;;;;;;8.93;1.88;;;13.30;99.90;;;;;;4851172;29;20101;-76
2023/01/11 06:20:55;;;;;;;10.70;1.60;;;13.30;99.90;;;;;;4851621;29;20057;-76
2023/01/11 06:23:21;;;;;;;9.63;1.80;;;13.20;99.90;;;;;;4859934;29;20104;-77
2023/01/11 06:25:47;;;;;;;8.23;2.00;;;13.20;99.90;;;;;;4856886;29;20042;-77
2023/01/11 06:28:14;;;;;;;8.43;1.50;;;13.10;99.90;;;;;;4858447;29;20037;-77
2023/01/11 06:30:40;;;;;;;6.65;1.48;;;12.90;99.90;;;;;;4856283;29;20101;-76
2023/01/11 06:33:06;;;;;;;8.77;1.55;;;12.80;99.90;;;;;;4853256;29;20057;-76
2023/01/11 06:35:33;;;;;;;6.28;1.27;;;13.00;99.90;;;;;;4851586;29;20197;-69
2023/01/11 06:37:59;;;;;;;6.55;1.30;;;13.10;99.90;;;;;;4847909;29;20052;-69
2023/01/11 06:40:25;;;;;;;7.70;1.17;;;13.00;99.90;;;;;;4840102;29;20037;-69
2023/01/11 06:42:50;;;;;;;8.60;1.80;;;12.80;99.90;;;;;;4839585;29;21288;-69
2023/01/11 06:45:16;;;;;;;8.82;1.95;;;13.00;99.90;;;;;;4852609;29;20056;-74
2023/01/11 06:47:42;;;;;;;5.97;1.45;;;12.70;99.90;;;;;;4854312;29;20469;-68
2023/01/11 06:50:08;;;;;;;6.80;1.75;;;12.90;99.90;;;;;;4836338;29;20068;-69
2023/01/11 06:52:34;;;;;;;10.05;1.70;;;13.00;99.90;;;;;;4851613;29;20049;-69
2023/01/11 06:55:00;;;;;;;8.57;1.95;;;12.90;99.90;;;;;;4850603;29;20106;-68
2023/01/11 06:57:25;;;;;;;9.75;2.08;;;12.90;99.90;;;;;;4815523;29;20053;-68
2023/01/11 06:59:51;;;;;;;10.27;2.17;;;13.00;99.90;;;;;;4834522;29;20048;-68
2023/01/11 07:02:17;;;;;;;10.98;2.10;;;12.90;99.90;;;;;;4835851;29;20057;-68
2023/01/11 07:04:42;;;;;;;13.90;2.30;;;12.70;99.90;;;;;;4840784;29;20628;-68
2023/01/11 07:07:08;;;;;;;10.02;2.30;;;12.70;99.90;;;;;;4855634;29;20064;-68
2023/01/11 07:09:34;;;;;;;11.27;2.22;;;12.80;99.90;;;;;;4836477;29;20056;-67
2023/01/11 07:11:59;;;;;;;11.23;2.20;;;12.60;99.90;;;;;;4853391;29;20049;-68
2023/01/11 07:14:25;;;;;;;7.47;1.92;;;12.80;99.90;;;;;;4856887;29;20202;-68
2023/01/11 07:16:51;;;;;;;7.38;1.85;;;12.60;99.90;;;;;;4852903;29;20069;-68
2023/01/11 07:19:17;;;;;;;9.32;1.77;;;12.70;99.90;;;;;;4856310;29;20041;-74
2023/01/11 07:21:43;;;;;;;8.57;1.80;;;12.60;99.90;;;;;;4840719;29;20120;-75
2023/01/11 07:24:08;;;;;;;8.50;1.95;;;12.30;99.90;;;;;;4842759;29;20049;-75
2023/01/11 07:26:40;;;;;;;8.23;1.52;;;12.30;99.90;;;;;;4857555;29;20424;-75
2023/01/11 07:29:06;;;;;;;9.07;1.42;;;12.50;99.90;;;;;;4857580;29;20053;-75
2023/01/11 07:31:32;;;;;;;4.85;1.50;;;12.20;99.90;;;;;;4852955;29;20518;-75
2023/01/11 07:33:58;;;;;;;6.32;1.40;;;12.20;99.90;;;;;;4825539;29;20048;-75
2023/01/11 07:36:24;;;;;;;4.45;1.15;;;12.40;99.90;;;;;;4858113;29;20101;-75
2023/01/11 07:38:49;;;;;;;7.00;1.50;;;12.20;99.90;;;;;;4857521;29;20479;-75
2023/01/11 07:44:07;;;;;;;5.85;1.40;;;12.10;99.90;;;;;;4820016;29;20053;-74
2023/01/11 07:46:33;;;;;;;5.43;1.38;;;12.10;99.90;;;;;;4855380;29;20056;-75
2023/01/11 07:48:59;;;;;;;5.78;1.35;;;12.10;99.90;;;;;;4860222;29;20387;-75
2023/01/11 07:51:24;;;;;;;7.47;2.00;;;12.30;99.90;;;;;;4841695;29;20046;-68
2023/01/11 07:53:50;;;;;;;9.95;2.03;;;12.20;99.90;;;;;;4854888;29;20548;-69
2023/01/11 07:56:19;;;;;;;8.73;1.60;;;12.20;99.90;;;;;;4840977;29;20060;-68
2023/01/11 07:58:44;;;;;;;6.95;1.83;;;12.10;99.90;;;;;;4857193;29;20088;-76
2023/01/11 08:01:10;;;;;;;10.50;1.85;;;12.20;99.90;;;;;;4841744;29;20077;-76
2023/01/11 08:03:36;;;;;;;5.80;1.33;;;12.20;99.90;;;;;;4855016;29;20049;-74
2023/01/11 08:06:01;;;;;;;10.02;1.83;;;12.00;99.90;;;;;;4856119;29;20464;-75
2023/01/11 08:08:27;;;;;;;9.05;1.85;;;12.10;99.90;;;;;;4849948;29;20054;-76
2023/01/11 08:16:22;;;;;;;13.23;2.35;;;12.00;99.90;;;;;;4857710;29;20057;-75
2023/01/11 08:18:52;;;;;;;11.60;2.13;;;12.10;99.90;;;;;;4858378;29;20045;-75
2023/01/11 08:21:20;;;;;;;7.78;1.52;;;12.00;99.90;;;;;;4853973;29;20474;-76
2023/01/11 08:23:46;;;;;;;11.25;1.80;;;11.80;99.90;;;;;;4846505;29;20044;-75
2023/01/11 08:26:15;;;;;;;;;;;11.80;99.90;;;;;;4858208;29;20056;-76
2023/01/11 08:28:44;;;;;;;10.23;1.80;;;11.80;99.90;;;;;;4855751;29;19931;-76
2023/01/11 08:31:10;;;;;;;8.00;1.77;;;11.60;99.90;;;;;;4840376;29;20589;-75
2023/01/11 08:33:36;;;;;;;8.98;1.95;;;11.60;99.90;;;;;;4859286;29;20049;-75
2023/01/11 08:36:07;;;;;;;9.32;1.73;;;11.50;99.90;;;;;;4860704;29;20395;-75
2023/01/11 08:38:33;;;;;;;10.52;1.52;;;11.50;99.90;;;;;;4857850;29;20052;-75
2023/01/11 08:41:00;;;;;;;7.93;1.70;;;11.50;99.90;;;;;;4863581;29;20098;-75
2023/01/11 08:43:26;;;;;;;9.75;2.47;;;11.40;99.90;;;;;;4879954;29;20045;-75
2023/01/11 08:45:51;;;;;;;7.88;1.63;;;11.40;99.90;;;;;;4863646;29;20049;-75
2023/01/11 08:48:17;;;;;;;10.25;1.83;;;11.40;99.90;;;;;;4837097;29;20085;-75
2023/01/11 08:50:43;;;;;;;7.38;1.70;;;11.20;99.90;;;;;;4833401;29;20094;-75
2023/01/11 08:53:10;;;;;;;8.82;1.48;;;11.10;99.90;;;;;;4841908;29;20049;-75
2023/01/11 08:55:36;;;;;;;6.57;1.45;;;11.10;99.90;;;;;;4860857;29;20073;-75
2023/01/11 08:58:02;;;;;;;6.43;1.58;;;11.00;99.90;;;;;;4860512;29;20088;-75
2023/01/11 09:00:27;;;;;;;9.63;1.40;;;11.00;99.90;;;;;;4870816;29;20077;-75
2023/01/11 09:02:53;;;;;;;4.82;1.30;;;11.00;99.90;;;;;;4868320;29;20485;-76
2023/01/11 09:05:19;;;;;;;5.75;1.35;;;10.90;99.90;;;;;;4825906;29;20470;-73
2023/01/11 09:07:45;;;;;;;7.13;1.45;;;10.80;99.90;;;;;;4858336;29;20426;-75
2023/01/11 09:10:11;;;;;;;7.22;1.30;;;10.70;99.90;;;;;;4839459;29;20084;-75
2023/01/11 09:12:37;;;;;;;6.25;1.40;;;10.70;99.90;;;;;;4837700;29;20087;-75
2023/01/11 09:15:04;;;;;;;11.45;1.88;;;10.80;99.90;;;;;;4846216;29;20041;-74
2023/01/11 09:17:30;;;;;;;8.48;1.60;;;10.80;99.90;;;;;;4840848;29;20093;-74
2023/01/11 09:19:56;;;;;;;8.57;1.50;;;10.80;99.90;;;;;;4853752;29;20431;-75
2023/01/11 09:22:22;;;;;;;7.18;1.30;;;10.60;99.90;;;;;;4844485;29;20049;-75
2023/01/11 09:24:48;;;;;;;7.15;1.20;;;10.60;99.90;;;;;;4843884;29;20055;-75
2023/01/11 09:27:14;;;;;;;3.97;1.10;;;10.50;99.90;;;;;;4845476;29;20050;-74
2023/01/11 09:29:40;;;;;;;8.25;1.80;;;10.40;99.90;;;;;;4848907;29;20505;-74
2023/01/11 09:32:05;;;;;;;10.75;1.90;;;10.40;99.90;;;;;;4828191;29;20049;-75
2023/01/11 09:34:32;;;;;;;5.43;1.38;;;10.30;99.90;;;;;;4843770;29;20057;-75
2023/01/11 09:37:01;;;;;;;5.38;1.08;;;10.30;99.90;;;;;;4876795;29;20081;-75
2023/01/11 09:39:27;;;;;;;4.55;1.45;;;10.20;99.90;;;;;;4861412;29;20144;-74
2023/01/11 09:42:25;;;;;;;5.55;1.38;;;10.20;99.90;;;;;;4857856;29;20121;-75
2023/01/11 09:44:59;;;;;;;10.13;1.80;;;10.30;99.90;;;;;;4853186;29;20128;-75
2023/01/11 09:47:45;;;;;;;8.63;2.00;;;10.20;99.90;;;;;;4858406;29;20373;-76
2023/01/11 09:50:16;;;;;;;10.07;1.90;;;10.20;99.90;;;;;;4857716;29;20049;-75
2023/01/11 09:52:46;;;;;;;6.47;1.55;;;10.30;99.90;;;;;;4859844;29;20493;-77
2023/01/11 09:55:23;;;;;;;7.68;1.70;;;10.20;99.90;;;;;;4858325;29;20116;-76
2023/01/11 09:58:21;;;;;;;9.40;1.58;;;10.20;99.90;;;;;;4861068;29;20041;-75
2023/01/11 10:01:16;;;;;;;5.35;1.20;;;10.30;99.90;;;;;;4856943;29;20061;-76
2023/01/11 10:04:22;;;;;;;9.55;1.30;;;10.30;99.90;;;;;;4853820;29;20108;-76
2023/01/11 10:07:02;;;;;;;5.32;1.33;;;10.30;99.90;;;;;;4832549;29;20141;-75
2023/01/11 10:09:45;;;;;;;10.23;1.67;;;10.30;99.90;;;;;;4871320;29;20054;-76
2023/01/11 10:12:30;;;;;;;9.20;1.83;;;10.30;99.90;;;;;;4869148;29;20045;-75
2023/01/11 10:15:31;;;;;;;7.88;1.50;;;10.30;99.90;;;;;;4858574;29;20057;-75
2023/01/11 10:18:25;;;;;;;6.13;1.50;;;10.40;99.90;;;;;;4851283;29;20084;-77
2023/01/11 10:20:59;;;;;;;5.50;1.40;;;10.30;99.90;;;;;;4843474;29;20411;-77
2023/01/11 10:23:36;;;;;;;8.93;1.77;;;10.40;99.90;;;;;;4857008;29;20449;-76
2023/01/11 10:26:11;;;;;;;7.78;1.85;;;10.40;99.90;;;;;;4842563;29;20105;-76
2023/01/11 10:29:02;;;;;;;12.02;1.73;;;10.50;99.90;;;;;;4826695;29;20050;-69
2023/01/11 10:40:25;;;;;;;9.60;1.50;;;10.50;99.90;;;;;;4787853;29;20119;-67
2023/01/11 10:43:02;;;;;;;9.85;1.38;;;10.50;99.90;;;;;;4846983;29;20140;-68
2023/01/11 10:45:40;;;;;;;;;;;10.50;99.90;;;;;;4856127;29;20045;-68
2023/01/11 10:48:25;;;;;;;6.68;1.50;;;10.50;99.90;;;;;;4858084;29;19975;-68
2023/01/11 10:51:14;;;;;;;9.23;1.80;;;10.60;99.90;;;;;;4857050;29;20052;-68
2023/01/11 10:54:01;;;;;;;10.25;2.20;;;10.60;99.90;;;;;;4855413;29;20056;-69
2023/01/11 10:56:27;;;;;;;8.50;1.65;;;10.60;99.90;;;;;;4841718;29;20113;-68
2023/01/11 10:58:59;;;;;;;11.05;1.98;;;10.70;99.90;;;;;;4839861;29;20089;-69
2023/01/11 11:01:27;;;;;;;11.93;2.00;;;10.60;99.90;;;;;;4854755;29;20770;-68
2023/01/11 11:04:30;;;;;;;11.55;2.08;;;10.60;99.90;;;;;;4840176;29;20093;-68
2023/01/11 11:06:58;;;;;;;8.93;2.20;;;10.60;99.90;;;;;;4841690;29;20565;-69
2023/01/11 11:09:43;;;;;;;12.25;1.70;;;10.60;99.90;;;;;;4854497;29;20405;-68
2023/01/11 11:12:24;;;;;;;7.30;1.85;;;10.70;99.90;;;;;;4855541;29;20084;-68
2023/01/11 11:14:59;;;;;;;11.77;1.85;;;10.70;99.90;;;;;;4858380;29;20095;-76
2023/01/11 11:17:35;;;;;;;11.82;1.90;;;10.70;99.90;;;;;;4853139;29;20064;-75
2023/01/11 11:20:19;;;;;;;10.00;1.92;;;10.70;99.90;;;;;;4857287;29;20045;-75
2023/01/11 11:22:52;;;;;;;9.70;2.10;;;10.70;99.90;;;;;;4840055;29;20440;-76
2023/01/11 11:25:33;;;;;;;11.18;1.90;;;10.80;99.90;;;;;;4853033;29;20053;-69
2023/01/11 11:28:22;;;;;;;16.55;2.83;;;10.70;99.90;;;;;;4857793;29;20474;-69
2023/01/11 11:30:57;;;;;;;13.48;2.53;;;10.80;99.90;;;;;;4839991;29;20045;-69
2023/01/11 11:33:39;;;;;;;10.90;2.40;;;10.90;99.90;;;;;;4839155;29;20402;-69
2023/01/11 11:36:11;;;;;;;9.25;1.85;;;10.80;99.90;;;;;;4851264;29;20053;-69
2023/01/11 11:38:40;;;;;;;9.13;1.80;;;10.70;99.90;;;;;;4857657;29;20041;-75
2023/01/11 11:41:05;;;;;;;15.55;2.33;;;10.60;99.90;;;;;;4857690;29;20045;-75
2023/01/11 11:43:39;;;;;;;17.25;3.47;;;10.50;99.90;;;;;;4839164;29;20064;-75
2023/01/11 11:46:14;;;;;;;11.90;2.40;;;10.70;99.90;;;;;;4853534;29;20053;-75
2023/01/11 11:49:00;;;;;;;12.85;2.10;;;10.60;99.90;;;;;;4855906;29;20056;-75
2023/01/11 11:51:26;;;;;;;12.52;2.22;;;10.50;99.90;;;;;;4853336;29;20041;-75
2023/01/11 11:53:55;;;;;;;13.93;2.20;;;10.50;99.90;;;;;;4856791;29;20060;-75
2023/01/11 11:56:27;;;;;;;15.57;2.75;;;10.50;99.90;;;;;;4857442;29;20064;-75
2023/01/11 11:58:55;;;;;;;14.35;2.35;;;10.50;99.90;;;;;;4855683;29;20132;-75
2023/01/11 12:01:27;;;;;;;14.77;2.80;;;10.50;99.90;;;;;;4857032;29;20054;-75
2023/01/11 12:03:58;;;;;;;9.55;2.13;;;10.60;99.90;;;;;;4860366;29;20063;-75
2023/01/11 12:06:27;;;;;;;13.60;2.67;;;10.60;99.90;;;;;;4856747;29;20038;-74
2023/01/11 12:08:54;;;;;;;13.30;2.72;;;10.60;99.90;;;;;;4860174;29;20088;-73
2023/01/11 12:11:29;;;;;;;15.68;2.50;;;10.60;99.90;;;;;;4832134;29;20074;-75
2023/01/11 12:14:16;;;;;;;15.52;3.00;;;10.70;99.90;;;;;;4856616;29;20109;-75
2023/01/11 12:16:44;;;;;;;17.73;3.05;;;10.60;99.90;;;;;;4861892;29;20601;-75
2023/01/11 12:19:28;;;;;;;14.80;2.42;;;10.70;99.90;;;;;;4860270;29;20052;-75
2023/01/11 12:22:22;;;;;;;13.77;2.60;;;10.60;99.90;;;;;;4860077;29;20056;-74
2023/01/11 12:25:17;;;;;;;15.25;2.90;;;10.50;99.90;;;;;;4861556;29;20530;-74
2023/01/11 12:28:05;;;;;;;11.50;2.70;;;10.50;99.90;;;;;;4860243;29;20045;-74
2023/01/11 12:30:41;;;;;;;12.38;2.47;;;10.40;99.90;;;;;;4861188;29;20447;-74
2023/01/11 12:33:22;;;;;;;10.63;2.60;;;10.40;99.90;;;;;;4860361;29;20041;-74
2023/01/11 12:36:18;;;;;;;14.18;2.47;;;10.30;99.90;;;;;;4859860;29;20082;-69
2023/01/11 12:38:56;;;;;;;12.85;2.50;;;10.20;99.90;;;;;;4860323;29;20087;-68
2023/01/11 12:41:47;;;;;;;12.02;2.30;;;10.20;99.90;;;;;;4842807;29;20140;-68
2023/01/11 12:44:31;;;;;;;13.25;2.22;;;10.20;99.90;;;;;;4833235;29;20057;-69
2023/01/11 12:47:14;;;;;;;19.63;2.92;;;10.10;99.90;;;;;;4840881;29;20517;-69
2023/01/11 12:50:08;;;;;;;9.60;2.25;;;10.10;99.90;;;;;;4853648;29;20585;-69
2023/01/11 12:52:38;;;;;;;14.35;2.63;;;10.20;99.90;;;;;;4843783;29;20060;-68
2023/01/11 12:55:19;;;;;;;11.00;2.22;;;10.20;99.90;;;;;;4859476;29;20574;-68
2023/01/11 12:58:09;;;;;;;14.90;2.58;;;10.20;99.90;;;;;;4849921;29;20064;-69
2023/01/11 13:01:07;;;;;;;13.68;2.60;;;10.20;99.90;;;;;;4856993;29;20077;-68
2023/01/11 13:03:57;;;;;;;13.90;2.47;;;10.20;99.90;;;;;;4833601;29;20140;-68
2023/01/11 13:06:34;;;;;;;13.68;2.53;;;10.20;99.90;;;;;;4857718;29;20045;-69
2023/01/11 13:09:34;;;;;;;17.35;2.80;;;10.30;99.90;;;;;;4851538;29;20077;-69
2023/01/11 13:12:20;;;;;;;14.18;2.63;;;10.40;99.90;;;;;;4842408;29;20094;-69
2023/01/11 13:15:08;;;;;;;17.98;2.50;;;10.40;99.90;;;;;;4870192;29;20085;-68
2023/01/11 13:18:00;;;;;;;12.32;2.42;;;10.30;99.90;;;;;;4850549;29;20054;-69
2023/01/11 13:20:53;;;;;;;16.75;2.85;;;10.20;99.90;;;;;;4855731;29;20068;-69
2023/01/11 13:23:31;;;;;;;17.52;3.00;;;10.10;99.90;;;;;;4857562;29;20050;-68
2023/01/11 13:26:05;;;;;;;17.33;2.80;;;10.10;99.90;;;;;;4854844;29;20521;-69
2023/01/11 13:28:39;;;;;;;15.90;3.05;;;10.10;99.90;;;;;;4855584;29;20501;-68
2023/01/11 13:31:09;;;;;;;14.48;2.72;;;10.10;99.90;;;;;;4857118;29;20143;-75
2023/01/11 13:33:39;;;;;;;15.30;2.92;;;10.20;99.90;;;;;;4841157;29;20049;-74
2023/01/11 13:36:14;;;;;;;21.80;3.70;;;10.20;99.90;;;;;;4854978;29;20087;-75
2023/01/11 13:38:54;;;;;;;18.85;3.00;;;10.10;99.90;;;;;;4856729;29;20109;-75
2023/01/11 13:41:33;;;;;;;10.98;2.33;;;10.10;99.90;;;;;;4861670;29;20057;-75
2023/01/11 13:44:12;;;;;;;15.45;3.10;;;10.10;99.90;;;;;;4864056;29;20056;-75
2023/01/11 13:47:14;;;;;;;19.15;3.45;;;10.10;99.90;;;;;;4880989;29;20396;-74
2023/01/11 13:49:52;;;;;;;16.60;3.17;;;10.10;99.90;;;;;;4807214;29;20164;-68
2023/01/11 13:52:36;;;;;;;15.25;2.53;;;10.10;99.90;;;;;;4853863;29;20443;-68